sensor_id;sensor_type;location;lat;lon;timestamp;temperature;humidity
3478;DHT22;37937;61.490;23.506;2023-09-19T00:01:42;6.90;99.90
3478;DHT22;37937;61.490;23.506;2023-09-19T00:04:13;6.90;99.90
3478;DHT22;37937;61.490;23.506;2023-09-19T00:06:40;7.00;99.90
3478;DHT22;37937;61.490;23.506;2023-09-19T00:09:06;7.00;99.90
3478;DHT22;37937;61.490;23.506;2023-09-19T00:11:36;7.00;99.90
3478;DHT22;37937;61.490;23.506;2023-09-19T00:14:02;7.00;99.90
3478;DHT22;37937;61.490;23.506;2023-09-19T00:16:28;7.00;99.90
3478;DHT22;37937;61.490;23.506;2023-09-19T00:18:53;7.00;99.90
3478;DHT22;37937;61.490;23.506;2023-09-19T00:21:20;7.10;99.90
3478;DHT22;37937;61.490;23.506;2023-09-19T00:23:46;7.10;99.90
3478;DHT22;37937;61.490;23.506;2023-09-19T00:26:12;7.20;99.90
3478;DHT22;37937;61.490;23.506;2023-09-19T00:28:38;7.10;99.90
3478;DHT22;37937;61.490;23.506;2023-09-19T00:31:07;7.20;99.90
3478;DHT22;37937;61.490;23.506;2023-09-19T00:33:34;7.20;99.90
3478;DHT22;37937;61.490;23.506;2023-09-19T00:35:59;7.30;99.90
3478;DHT22;37937;61.490;23.506;2023-09-19T00:38:29;7.30;99.90
3478;DHT22;37937;61.490;23.506;2023-09-19T00:40:55;7.30;99.90
3478;DHT22;37937;61.490;23.506;2023-09-19T00:43:23;7.20;99.90
3478;DHT22;37937;61.490;23.506;2023-09-19T00:45:50;7.20;99.90
3478;DHT22;37937;61.490;23.506;2023-09-19T00:48:16;7.20;99.90
3478;DHT22;37937;61.490;23.506;2023-09-19T00:50:44;7.20;99.90
3478;DHT22;37937;61.490;23.506;2023-09-19T00:53:13;7.20;99.90
3478;DHT22;37937;61.490;23.506;2023-09-19T00:55:39;7.20;99.90
3478;DHT22;37937;61.490;23.506;2023-09-19T00:58:07;7.10;99.90
3478;DHT22;37937;61.490;23.506;2023-09-19T01:00:35;7.20;99.90
3478;DHT22;37937;61.490;23.506;2023-09-19T01:03:01;7.20;99.90
3478;DHT22;37937;61.490;23.506;2023-09-19T01:05:27;7.20;99.90
3478;DHT22;37937;61.490;23.506;2023-09-19T01:07:53;7.20;99.90
3478;DHT22;37937;61.490;23.506;2023-09-19T01:10:18;7.20;99.90
3478;DHT22;37937;61.490;23.506;2023-09-19T01:17:45;7.00;99.90
3478;DHT22;37937;61.490;23.506;2023-09-19T01:20:30;7.00;99.90
3478;DHT22;37937;61.490;23.506;2023-09-19T01:25:42;7.00;99.90
3478;DHT22;37937;61.490;23.506;2023-09-19T01:30:40;7.00;99.90
3478;DHT22;37937;61.490;23.506;2023-09-19T01:33:08;7.00;99.90
3478;DHT22;37937;61.490;23.506;2023-09-19T01:35:39;7.00;99.90
3478;DHT22;37937;61.490;23.506;2023-09-19T01:38:05;7.00;99.90
3478;DHT22;37937;61.490;23.506;2023-09-19T01:40:34;7.00;99.90
3478;DHT22;37937;61.490;23.506;2023-09-19T01:45:33;7.00;99.90
3478;DHT22;37937;61.490;23.506;2023-09-19T01:48:14;6.90;99.90
3478;DHT22;37937;61.490;23.506;2023-09-19T01:50:55;6.90;99.90
3478;DHT22;37937;61.490;23.506;2023-09-19T01:56:12;6.90;99.90
3478;DHT22;37937;61.490;23.506;2023-09-19T01:58:48;6.90;99.90
3478;DHT22;37937;61.490;23.506;2023-09-19T02:01:16;6.90;99.90
3478;DHT22;37937;61.490;23.506;2023-09-19T02:03:43;6.90;99.90
3478;DHT22;37937;61.490;23.506;2023-09-19T02:06:13;6.90;99.90
3478;DHT22;37937;61.490;23.506;2023-09-19T02:08:39;6.90;99.90
3478;DHT22;37937;61.490;23.506;2023-09-19T02:11:05;6.90;99.90
3478;DHT22;37937;61.490;23.506;2023-09-19T02:13:31;6.90;99.90
3478;DHT22;37937;61.490;23.506;2023-09-19T02:15:57;6.90;99.90
3478;DHT22;37937;61.490;23.506;2023-09-19T02:18:23;6.90;99.90
3478;DHT22;37937;61.490;23.506;2023-09-19T02:20:48;6.90;99.90
3478;DHT22;37937;61.490;23.506;2023-09-19T02:23:16;7.00;99.90
3478;DHT22;37937;61.490;23.506;2023-09-19T02:25:42;7.00;99.90
3478;DHT22;37937;61.490;23.506;2023-09-19T02:28:09;7.00;99.90
3478;DHT22;37937;61.490;23.506;2023-09-19T02:30:35;7.00;99.90
3478;DHT22;37937;61.490;23.506;2023-09-19T02:33:01;7.00;99.90
3478;DHT22;37937;61.490;23.506;2023-09-19T02:35:28;7.00;99.90
3478;DHT22;37937;61.490;23.506;2023-09-19T02:37:58;7.00;99.90
3478;DHT22;37937;61.490;23.506;2023-09-19T02:40:23;7.10;99.90
3478;DHT22;37937;61.490;23.506;2023-09-19T02:42:54;7.20;99.90
3478;DHT22;37937;61.490;23.506;2023-09-19T02:45:20;7.30;99.90
3478;DHT22;37937;61.490;23.506;2023-09-19T02:47:46;7.30;99.90
3478;DHT22;37937;61.490;23.506;2023-09-19T02:50:12;7.30;99.90
3478;DHT22;37937;61.490;23.506;2023-09-19T02:52:42;7.30;99.90
3478;DHT22;37937;61.490;23.506;2023-09-19T02:55:14;7.40;99.90
3478;DHT22;37937;61.490;23.506;2023-09-19T02:57:49;7.50;99.90
3478;DHT22;37937;61.490;23.506;2023-09-19T03:00:15;7.50;99.90
3478;DHT22;37937;61.490;23.506;2023-09-19T03:02:42;7.60;99.90
3478;DHT22;37937;61.490;23.506;2023-09-19T03:05:08;7.60;99.90
3478;DHT22;37937;61.490;23.506;2023-09-19T03:07:36;7.60;99.90
3478;DHT22;37937;61.490;23.506;2023-09-19T03:10:04;7.70;99.90
3478;DHT22;37937;61.490;23.506;2023-09-19T03:12:30;7.70;99.90
3478;DHT22;37937;61.490;23.506;2023-09-19T03:14:57;7.80;99.90
3478;DHT22;37937;61.490;23.506;2023-09-19T03:17:23;7.80;99.90
3478;DHT22;37937;61.490;23.506;2023-09-19T03:19:48;7.80;99.90
3478;DHT22;37937;61.490;23.506;2023-09-19T03:22:15;7.90;99.90
3478;DHT22;37937;61.490;23.506;2023-09-19T03:24:41;7.90;99.90
3478;DHT22;37937;61.490;23.506;2023-09-19T03:27:09;7.90;99.90
3478;DHT22;37937;61.490;23.506;2023-09-19T03:29:35;8.00;99.90
3478;DHT22;37937;61.490;23.506;2023-09-19T03:32:01;8.10;99.90
3478;DHT22;37937;61.490;23.506;2023-09-19T03:34:27;8.10;99.90
3478;DHT22;37937;61.490;23.506;2023-09-19T03:36:52;8.20;99.90
3478;DHT22;37937;61.490;23.506;2023-09-19T03:39:18;8.20;99.90
3478;DHT22;37937;61.490;23.506;2023-09-19T03:41:43;8.30;99.90
3478;DHT22;37937;61.490;23.506;2023-09-19T03:44:10;8.30;99.90
3478;DHT22;37937;61.490;23.506;2023-09-19T03:46:36;8.30;99.90
3478;DHT22;37937;61.490;23.506;2023-09-19T03:49:02;8.40;99.90
3478;DHT22;37937;61.490;23.506;2023-09-19T03:51:28;8.40;99.90
3478;DHT22;37937;61.490;23.506;2023-09-19T03:53:53;8.40;99.90
3478;DHT22;37937;61.490;23.506;2023-09-19T03:56:19;8.50;99.90
3478;DHT22;37937;61.490;23.506;2023-09-19T03:58:45;8.50;99.90
3478;DHT22;37937;61.490;23.506;2023-09-19T04:01:10;8.60;99.90
3478;DHT22;37937;61.490;23.506;2023-09-19T04:03:36;8.60;99.90
3478;DHT22;37937;61.490;23.506;2023-09-19T04:06:13;8.60;99.90
3478;DHT22;37937;61.490;23.506;2023-09-19T04:08:38;8.70;99.90
3478;DHT22;37937;61.490;23.506;2023-09-19T04:11:04;8.70;99.90
3478;DHT22;37937;61.490;23.506;2023-09-19T04:13:29;8.80;99.90
3478;DHT22;37937;61.490;23.506;2023-09-19T04:15:55;8.80;99.90
3478;DHT22;37937;61.490;23.506;2023-09-19T04:18:21;8.90;99.90
3478;DHT22;37937;61.490;23.506;2023-09-19T04:20:49;8.90;99.90
3478;DHT22;37937;61.490;23.506;2023-09-19T04:23:15;9.00;99.90
3478;DHT22;37937;61.490;23.506;2023-09-19T04:25:41;9.00;99.90
3478;DHT22;37937;61.490;23.506;2023-09-19T04:28:06;9.10;99.90
3478;DHT22;37937;61.490;23.506;2023-09-19T04:30:32;9.10;99.90
3478;DHT22;37937;61.490;23.506;2023-09-19T04:32:57;9.10;99.90
3478;DHT22;37937;61.490;23.506;2023-09-19T04:35:24;9.20;99.90
3478;DHT22;37937;61.490;23.506;2023-09-19T04:37:52;9.30;99.90
3478;DHT22;37937;61.490;23.506;2023-09-19T04:40:18;9.30;99.90
3478;DHT22;37937;61.490;23.506;2023-09-19T04:42:44;9.30;99.90
3478;DHT22;37937;61.490;23.506;2023-09-19T04:45:11;9.30;99.90
3478;DHT22;37937;61.490;23.506;2023-09-19T04:47:40;9.40;99.90
3478;DHT22;37937;61.490;23.506;2023-09-19T04:50:08;9.50;99.90
3478;DHT22;37937;61.490;23.506;2023-09-19T04:52:42;9.50;99.90
3478;DHT22;37937;61.490;23.506;2023-09-19T04:55:11;9.60;99.90
3478;DHT22;37937;61.490;23.506;2023-09-19T04:57:43;9.70;99.90
3478;DHT22;37937;61.490;23.506;2023-09-19T05:00:10;9.70;99.90
3478;DHT22;37937;61.490;23.506;2023-09-19T05:02:40;9.70;99.90
3478;DHT22;37937;61.490;23.506;2023-09-19T05:05:06;9.70;99.90
3478;DHT22;37937;61.490;23.506;2023-09-19T05:07:32;9.80;99.90
3478;DHT22;37937;61.490;23.506;2023-09-19T05:09:59;9.80;99.90
3478;DHT22;37937;61.490;23.506;2023-09-19T05:12:26;9.90;99.90
3478;DHT22;37937;61.490;23.506;2023-09-19T05:14:52;9.90;99.90
3478;DHT22;37937;61.490;23.506;2023-09-19T05:17:18;10.00;99.90
3478;DHT22;37937;61.490;23.506;2023-09-19T05:19:44;10.00;99.90
3478;DHT22;37937;61.490;23.506;2023-09-19T05:22:11;10.00;99.90
3478;DHT22;37937;61.490;23.506;2023-09-19T05:24:37;10.10;99.90
3478;DHT22;37937;61.490;23.506;2023-09-19T05:27:04;10.10;99.90
3478;DHT22;37937;61.490;23.506;2023-09-19T05:29:33;10.10;99.90
3478;DHT22;37937;61.490;23.506;2023-09-19T05:31:59;10.10;99.90
3478;DHT22;37937;61.490;23.506;2023-09-19T05:34:24;10.20;99.90
3478;DHT22;37937;61.490;23.506;2023-09-19T05:36:53;10.20;99.90
3478;DHT22;37937;61.490;23.506;2023-09-19T05:39:19;10.20;99.90
3478;DHT22;37937;61.490;23.506;2023-09-19T05:41:45;10.30;99.90
3478;DHT22;37937;61.490;23.506;2023-09-19T05:44:13;10.30;99.90
3478;DHT22;37937;61.490;23.506;2023-09-19T05:46:39;10.20;99.90
3478;DHT22;37937;61.490;23.506;2023-09-19T05:49:05;10.30;99.90
3478;DHT22;37937;61.490;23.506;2023-09-19T05:51:31;10.30;99.90
3478;DHT22;37937;61.490;23.506;2023-09-19T05:53:56;10.40;99.90
3478;DHT22;37937;61.490;23.506;2023-09-19T05:56:23;10.40;99.90
3478;DHT22;37937;61.490;23.506;2023-09-19T05:58:49;10.40;99.90
3478;DHT22;37937;61.490;23.506;2023-09-19T06:01:17;10.40;99.90
3478;DHT22;37937;61.490;23.506;2023-09-19T06:03:43;10.50;99.90
3478;DHT22;37937;61.490;23.506;2023-09-19T06:06:08;10.50;99.90
3478;DHT22;37937;61.490;23.506;2023-09-19T06:08:34;10.50;99.90
3478;DHT22;37937;61.490;23.506;2023-09-19T06:11:00;10.60;99.90
3478;DHT22;37937;61.490;23.506;2023-09-19T06:13:29;10.60;99.90
3478;DHT22;37937;61.490;23.506;2023-09-19T06:15:55;10.70;99.90
3478;DHT22;37937;61.490;23.506;2023-09-19T06:18:21;10.70;99.90
3478;DHT22;37937;61.490;23.506;2023-09-19T06:20:51;10.70;99.90
3478;DHT22;37937;61.490;23.506;2023-09-19T06:23:17;10.70;99.90
3478;DHT22;37937;61.490;23.506;2023-09-19T06:25:43;10.80;99.90
3478;DHT22;37937;61.490;23.506;2023-09-19T06:28:09;10.80;99.90
3478;DHT22;37937;61.490;23.506;2023-09-19T06:30:37;10.90;99.90
3478;DHT22;37937;61.490;23.506;2023-09-19T06:33:05;10.90;99.90
3478;DHT22;37937;61.490;23.506;2023-09-19T06:35:35;10.90;99.90
3478;DHT22;37937;61.490;23.506;2023-09-19T06:38:04;10.90;99.90
3478;DHT22;37937;61.490;23.506;2023-09-19T06:40:29;11.00;99.90
3478;DHT22;37937;61.490;23.506;2023-09-19T06:42:56;11.00;99.90
3478;DHT22;37937;61.490;23.506;2023-09-19T06:45:22;11.10;99.90
3478;DHT22;37937;61.490;23.506;2023-09-19T06:47:49;11.10;99.90
3478;DHT22;37937;61.490;23.506;2023-09-19T06:50:16;11.20;99.90
3478;DHT22;37937;61.490;23.506;2023-09-19T06:52:44;11.10;99.90
3478;DHT22;37937;61.490;23.506;2023-09-19T06:55:11;11.20;99.90
3478;DHT22;37937;61.490;23.506;2023-09-19T06:57:38;11.20;99.90
3478;DHT22;37937;61.490;23.506;2023-09-19T07:00:06;11.30;99.90
3478;DHT22;37937;61.490;23.506;2023-09-19T07:02:43;11.30;99.90
3478;DHT22;37937;61.490;23.506;2023-09-19T07:05:08;11.30;99.90
3478;DHT22;37937;61.490;23.506;2023-09-19T07:07:35;11.40;99.90
3478;DHT22;37937;61.490;23.506;2023-09-19T07:10:01;11.40;99.90
3478;DHT22;37937;61.490;23.506;2023-09-19T07:12:26;11.40;99.90
3478;DHT22;37937;61.490;23.506;2023-09-19T07:14:52;11.50;99.90
3478;DHT22;37937;61.490;23.506;2023-09-19T07:17:17;11.50;99.90
3478;DHT22;37937;61.490;23.506;2023-09-19T07:19:44;11.60;99.90
3478;DHT22;37937;61.490;23.506;2023-09-19T07:22:10;11.60;99.90
3478;DHT22;37937;61.490;23.506;2023-09-19T07:24:36;11.60;99.90
3478;DHT22;37937;61.490;23.506;2023-09-19T07:27:02;11.60;99.90
3478;DHT22;37937;61.490;23.506;2023-09-19T07:29:28;11.70;99.90
3478;DHT22;37937;61.490;23.506;2023-09-19T07:31:53;11.70;99.90
3478;DHT22;37937;61.490;23.506;2023-09-19T07:34:19;11.70;99.90
3478;DHT22;37937;61.490;23.506;2023-09-19T07:36:47;11.70;99.90
3478;DHT22;37937;61.490;23.506;2023-09-19T07:39:13;11.70;99.90
3478;DHT22;37937;61.490;23.506;2023-09-19T07:41:38;11.70;99.90
3478;DHT22;37937;61.490;23.506;2023-09-19T07:44:04;11.80;99.90
3478;DHT22;37937;61.490;23.506;2023-09-19T07:46:30;11.80;99.90
3478;DHT22;37937;61.490;23.506;2023-09-19T07:48:57;11.90;99.90
3478;DHT22;37937;61.490;23.506;2023-09-19T07:51:22;11.90;99.90
3478;DHT22;37937;61.490;23.506;2023-09-19T07:53:48;11.90;99.90
3478;DHT22;37937;61.490;23.506;2023-09-19T07:56:14;12.00;99.90
3478;DHT22;37937;61.490;23.506;2023-09-19T07:58:40;12.00;99.90
3478;DHT22;37937;61.490;23.506;2023-09-19T08:01:09;12.00;99.90
3478;DHT22;37937;61.490;23.506;2023-09-19T08:03:36;12.00;99.90
3478;DHT22;37937;61.490;23.506;2023-09-19T08:06:06;12.00;99.90
3478;DHT22;37937;61.490;23.506;2023-09-19T08:08:32;12.10;99.90
3478;DHT22;37937;61.490;23.506;2023-09-19T08:10:59;12.00;99.90
3478;DHT22;37937;61.490;23.506;2023-09-19T08:13:26;12.10;99.90
3478;DHT22;37937;61.490;23.506;2023-09-19T08:15:52;12.10;99.90
3478;DHT22;37937;61.490;23.506;2023-09-19T08:18:20;12.20;99.90
3478;DHT22;37937;61.490;23.506;2023-09-19T08:20:50;12.10;99.90
3478;DHT22;37937;61.490;23.506;2023-09-19T08:23:16;12.20;99.90
3478;DHT22;37937;61.490;23.506;2023-09-19T08:25:42;12.20;99.90
3478;DHT22;37937;61.490;23.506;2023-09-19T08:28:08;12.20;99.90
3478;DHT22;37937;61.490;23.506;2023-09-19T08:30:34;12.30;99.90
3478;DHT22;37937;61.490;23.506;2023-09-19T08:33:00;12.30;99.90
3478;DHT22;37937;61.490;23.506;2023-09-19T08:35:27;12.30;99.90
3478;DHT22;37937;61.490;23.506;2023-09-19T08:37:52;12.40;99.90
3478;DHT22;37937;61.490;23.506;2023-09-19T08:40:18;12.40;99.90
3478;DHT22;37937;61.490;23.506;2023-09-19T08:42:50;12.40;99.90
3478;DHT22;37937;61.490;23.506;2023-09-19T08:45:16;12.40;99.90
3478;DHT22;37937;61.490;23.506;2023-09-19T08:47:46;12.50;99.90
3478;DHT22;37937;61.490;23.506;2023-09-19T08:52:42;12.60;99.90
3478;DHT22;37937;61.490;23.506;2023-09-19T08:55:11;12.60;99.90
3478;DHT22;37937;61.490;23.506;2023-09-19T08:57:37;12.60;99.90
3478;DHT22;37937;61.490;23.506;2023-09-19T09:00:07;12.60;99.90
3478;DHT22;37937;61.490;23.506;2023-09-19T09:02:37;12.70;99.90
3478;DHT22;37937;61.490;23.506;2023-09-19T09:05:05;12.70;99.90
3478;DHT22;37937;61.490;23.506;2023-09-19T09:07:31;12.80;99.90
3478;DHT22;37937;61.490;23.506;2023-09-19T09:10:00;12.80;99.90
3478;DHT22;37937;61.490;23.506;2023-09-19T09:12:25;12.80;99.90
3478;DHT22;37937;61.490;23.506;2023-09-19T09:14:51;12.90;99.90
3478;DHT22;37937;61.490;23.506;2023-09-19T09:17:17;12.90;99.90
3478;DHT22;37937;61.490;23.506;2023-09-19T09:19:46;12.90;99.90
3478;DHT22;37937;61.490;23.506;2023-09-19T09:22:12;13.00;99.90
3478;DHT22;37937;61.490;23.506;2023-09-19T09:24:50;13.00;99.90
3478;DHT22;37937;61.490;23.506;2023-09-19T09:27:16;13.10;99.90
3478;DHT22;37937;61.490;23.506;2023-09-19T09:29:43;13.10;99.90
3478;DHT22;37937;61.490;23.506;2023-09-19T09:32:25;13.20;99.90
3478;DHT22;37937;61.490;23.506;2023-09-19T09:34:52;13.10;99.90
3478;DHT22;37937;61.490;23.506;2023-09-19T09:37:18;13.20;99.90
3478;DHT22;37937;61.490;23.506;2023-09-19T09:39:56;13.30;99.90
3478;DHT22;37937;61.490;23.506;2023-09-19T09:42:32;13.30;99.90
3478;DHT22;37937;61.490;23.506;2023-09-19T09:48:02;13.30;99.90
3478;DHT22;37937;61.490;23.506;2023-09-19T09:50:30;13.40;99.90
3478;DHT22;37937;61.490;23.506;2023-09-19T09:53:28;13.40;99.90
3478;DHT22;37937;61.490;23.506;2023-09-19T09:58:25;13.50;99.90
3478;DHT22;37937;61.490;23.506;2023-09-19T10:01:04;13.50;99.90
3478;DHT22;37937;61.490;23.506;2023-09-19T10:06:08;13.60;99.90
3478;DHT22;37937;61.490;23.506;2023-09-19T10:11:30;13.70;99.90
3478;DHT22;37937;61.490;23.506;2023-09-19T10:13:57;13.70;99.90
3478;DHT22;37937;61.490;23.506;2023-09-19T10:16:23;13.80;99.90
3478;DHT22;37937;61.490;23.506;2023-09-19T10:18:50;13.80;99.90
3478;DHT22;37937;61.490;23.506;2023-09-19T10:21:19;13.80;99.90
3478;DHT22;37937;61.490;23.506;2023-09-19T10:23:48;13.90;99.90
3478;DHT22;37937;61.490;23.506;2023-09-19T10:26:16;14.00;99.90
3478;DHT22;37937;61.490;23.506;2023-09-19T10:28:42;14.00;99.90
3478;DHT22;37937;61.490;23.506;2023-09-19T10:31:08;14.00;99.90
3478;DHT22;37937;61.490;23.506;2023-09-19T10:33:35;14.00;99.90
3478;DHT22;37937;61.490;23.506;2023-09-19T10:36:03;14.10;99.90
3478;DHT22;37937;61.490;23.506;2023-09-19T10:38:30;14.10;99.90
3478;DHT22;37937;61.490;23.506;2023-09-19T10:40:58;14.10;99.90
3478;DHT22;37937;61.490;23.506;2023-09-19T10:43:28;14.20;99.90
3478;DHT22;37937;61.490;23.506;2023-09-19T10:45:55;14.20;99.90
3478;DHT22;37937;61.490;23.506;2023-09-19T10:48:22;14.20;99.90
3478;DHT22;37937;61.490;23.506;2023-09-19T10:50:52;14.20;99.90
3478;DHT22;37937;61.490;23.506;2023-09-19T10:53:21;14.30;99.90
3478;DHT22;37937;61.490;23.506;2023-09-19T10:55:52;14.40;99.90
3478;DHT22;37937;61.490;23.506;2023-09-19T10:58:53;14.40;99.90
3478;DHT22;37937;61.490;23.506;2023-09-19T11:01:11;14.40;99.90
3478;DHT22;37937;61.490;23.506;2023-09-19T11:03:38;14.40;99.90
3478;DHT22;37937;61.490;23.506;2023-09-19T11:06:12;14.40;99.90
3478;DHT22;37937;61.490;23.506;2023-09-19T11:11:41;14.50;99.90
3478;DHT22;37937;61.490;23.506;2023-09-19T11:16:40;14.50;99.90
3478;DHT22;37937;61.490;23.506;2023-09-19T11:19:57;14.50;99.90
3478;DHT22;37937;61.490;23.506;2023-09-19T11:22:13;14.50;99.90
3478;DHT22;37937;61.490;23.506;2023-09-19T11:24:39;14.60;99.90
3478;DHT22;37937;61.490;23.506;2023-09-19T11:27:13;14.60;99.90
3478;DHT22;37937;61.490;23.506;2023-09-19T11:29:39;14.70;99.90
3478;DHT22;37937;61.490;23.506;2023-09-19T11:32:06;14.60;99.90
3478;DHT22;37937;61.490;23.506;2023-09-19T11:34:38;14.70;99.90
3478;DHT22;37937;61.490;23.506;2023-09-19T11:39:37;14.70;99.90
3478;DHT22;37937;61.490;23.506;2023-09-19T11:42:57;14.80;99.90
3478;DHT22;37937;61.490;23.506;2023-09-19T11:45:03;14.80;99.90
3478;DHT22;37937;61.490;23.506;2023-09-19T11:47:29;14.90;99.90
3478;DHT22;37937;61.490;23.506;2023-09-19T11:49:55;14.90;99.90
3478;DHT22;37937;61.490;23.506;2023-09-19T11:52:23;15.00;99.90
3478;DHT22;37937;61.490;23.506;2023-09-19T11:54:56;15.00;99.90
3478;DHT22;37937;61.490;23.506;2023-09-19T11:57:23;15.00;99.90
3478;DHT22;37937;61.490;23.506;2023-09-19T11:59:49;15.00;99.90
3478;DHT22;37937;61.490;23.506;2023-09-19T12:02:19;15.00;99.90
3478;DHT22;37937;61.490;23.506;2023-09-19T12:04:54;15.00;99.90
3478;DHT22;37937;61.490;23.506;2023-09-19T12:07:20;15.10;99.90
3478;DHT22;37937;61.490;23.506;2023-09-19T12:09:48;15.10;99.90
3478;DHT22;37937;61.490;23.506;2023-09-19T12:14:49;15.10;99.90
3478;DHT22;37937;61.490;23.506;2023-09-19T12:17:18;15.20;99.90
3478;DHT22;37937;61.490;23.506;2023-09-19T12:19:51;15.20;99.90
3478;DHT22;37937;61.490;23.506;2023-09-19T12:22:17;15.10;99.90
3478;DHT22;37937;61.490;23.506;2023-09-19T12:24:45;15.20;99.90
3478;DHT22;37937;61.490;23.506;2023-09-19T12:27:12;15.10;99.90
3478;DHT22;37937;61.490;23.506;2023-09-19T12:29:45;15.10;99.90
3478;DHT22;37937;61.490;23.506;2023-09-19T12:32:11;15.20;99.90
3478;DHT22;37937;61.490;23.506;2023-09-19T12:34:36;15.20;99.90
3478;DHT22;37937;61.490;23.506;2023-09-19T12:37:08;15.20;99.90
3478;DHT22;37937;61.490;23.506;2023-09-19T12:39:40;15.20;99.90
3478;DHT22;37937;61.490;23.506;2023-09-19T12:42:07;15.20;99.90
3478;DHT22;37937;61.490;23.506;2023-09-19T12:44:35;15.30;99.90
3478;DHT22;37937;61.490;23.506;2023-09-19T12:47:08;15.30;99.90
3478;DHT22;37937;61.490;23.506;2023-09-19T12:49:34;15.30;99.90
3478;DHT22;37937;61.490;23.506;2023-09-19T12:52:00;15.30;99.90
3478;DHT22;37937;61.490;23.506;2023-09-19T12:54:36;15.40;99.90
3478;DHT22;37937;61.490;23.506;2023-09-19T12:57:04;15.40;99.90
3478;DHT22;37937;61.490;23.506;2023-09-19T12:59:30;15.40;99.90
3478;DHT22;37937;61.490;23.506;2023-09-19T13:02:04;15.40;99.90
3478;DHT22;37937;61.490;23.506;2023-09-19T13:04:32;15.40;99.90
3478;DHT22;37937;61.490;23.506;2023-09-19T13:07:00;15.40;99.90
3478;DHT22;37937;61.490;23.506;2023-09-19T13:09:27;15.40;99.90
3478;DHT22;37937;61.490;23.506;2023-09-19T13:12:04;15.40;99.90
3478;DHT22;37937;61.490;23.506;2023-09-19T13:14:32;15.50;99.90
3478;DHT22;37937;61.490;23.506;2023-09-19T13:17:08;15.40;99.90
3478;DHT22;37937;61.490;23.506;2023-09-19T13:19:42;15.50;99.90
3478;DHT22;37937;61.490;23.506;2023-09-19T13:24:56;15.50;99.90
3478;DHT22;37937;61.490;23.506;2023-09-19T13:27:23;15.50;99.90
3478;DHT22;37937;61.490;23.506;2023-09-19T13:29:49;15.50;99.90
3478;DHT22;37937;61.490;23.506;2023-09-19T13:32:15;15.50;99.90
3478;DHT22;37937;61.490;23.506;2023-09-19T13:34:40;15.50;99.90
3478;DHT22;37937;61.490;23.506;2023-09-19T13:37:06;15.40;99.90
3478;DHT22;37937;61.490;23.506;2023-09-19T13:39:31;15.40;99.90
3478;DHT22;37937;61.490;23.506;2023-09-19T13:41:57;15.40;99.90
3478;DHT22;37937;61.490;23.506;2023-09-19T13:44:24;15.40;99.90
3478;DHT22;37937;61.490;23.506;2023-09-19T13:46:50;15.40;99.90
3478;DHT22;37937;61.490;23.506;2023-09-19T13:49:16;15.40;99.90
3478;DHT22;37937;61.490;23.506;2023-09-19T13:51:43;15.40;99.90
3478;DHT22;37937;61.490;23.506;2023-09-19T13:54:09;15.40;99.90
3478;DHT22;37937;61.490;23.506;2023-09-19T13:56:35;15.40;99.90
3478;DHT22;37937;61.490;23.506;2023-09-19T13:59:02;15.40;99.90
3478;DHT22;37937;61.490;23.506;2023-09-19T14:01:27;15.40;99.90
3478;DHT22;37937;61.490;23.506;2023-09-19T14:03:53;15.40;99.90
3478;DHT22;37937;61.490;23.506;2023-09-19T14:06:20;15.40;99.90
3478;DHT22;37937;61.490;23.506;2023-09-19T14:08:45;15.40;99.90
3478;DHT22;37937;61.490;23.506;2023-09-19T14:11:13;15.40;99.90
3478;DHT22;37937;61.490;23.506;2023-09-19T14:13:39;15.40;99.90
3478;DHT22;37937;61.490;23.506;2023-09-19T14:16:06;15.30;99.90
3478;DHT22;37937;61.490;23.506;2023-09-19T14:18:32;15.40;99.90
3478;DHT22;37937;61.490;23.506;2023-09-19T14:20:57;15.40;99.90
3478;DHT22;37937;61.490;23.506;2023-09-19T14:23:23;15.40;99.90
3478;DHT22;37937;61.490;23.506;2023-09-19T14:25:50;15.40;99.90
3478;DHT22;37937;61.490;23.506;2023-09-19T14:28:15;15.40;99.90
3478;DHT22;37937;61.490;23.506;2023-09-19T14:30:41;15.30;99.90
3478;DHT22;37937;61.490;23.506;2023-09-19T14:33:07;15.40;99.90
3478;DHT22;37937;61.490;23.506;2023-09-19T14:35:32;15.40;99.90
3478;DHT22;37937;61.490;23.506;2023-09-19T14:37:58;15.40;99.90
3478;DHT22;37937;61.490;23.506;2023-09-19T14:40:24;15.40;99.90
3478;DHT22;37937;61.490;23.506;2023-09-19T14:42:50;15.40;99.90
3478;DHT22;37937;61.490;23.506;2023-09-19T14:45:16;15.40;99.90
3478;DHT22;37937;61.490;23.506;2023-09-19T14:47:45;15.50;99.90
3478;DHT22;37937;61.490;23.506;2023-09-19T14:50:11;15.50;99.90
3478;DHT22;37937;61.490;23.506;2023-09-19T14:52:37;15.50;99.90
3478;DHT22;37937;61.490;23.506;2023-09-19T14:55:05;15.50;99.90
3478;DHT22;37937;61.490;23.506;2023-09-19T14:57:31;15.50;99.90
3478;DHT22;37937;61.490;23.506;2023-09-19T14:59:57;15.50;99.90
3478;DHT22;37937;61.490;23.506;2023-09-19T15:02:24;15.50;99.90
3478;DHT22;37937;61.490;23.506;2023-09-19T15:04:50;15.60;99.90
3478;DHT22;37937;61.490;23.506;2023-09-19T15:07:16;15.60;99.90
3478;DHT22;37937;61.490;23.506;2023-09-19T15:09:43;15.60;99.90
3478;DHT22;37937;61.490;23.506;2023-09-19T15:12:09;15.60;99.90
3478;DHT22;37937;61.490;23.506;2023-09-19T15:14:35;15.60;99.90
3478;DHT22;37937;61.490;23.506;2023-09-19T15:17:01;15.60;99.90
3478;DHT22;37937;61.490;23.506;2023-09-19T15:19:30;15.60;99.90
3478;DHT22;37937;61.490;23.506;2023-09-19T15:21:55;15.60;99.90
3478;DHT22;37937;61.490;23.506;2023-09-19T15:24:23;15.60;99.90
3478;DHT22;37937;61.490;23.506;2023-09-19T15:26:48;15.60;99.90
3478;DHT22;37937;61.490;23.506;2023-09-19T15:29:15;15.60;99.90
3478;DHT22;37937;61.490;23.506;2023-09-19T15:31:41;15.60;99.90
3478;DHT22;37937;61.490;23.506;2023-09-19T15:34:07;15.60;99.90
3478;DHT22;37937;61.490;23.506;2023-09-19T15:36:33;15.60;99.90
3478;DHT22;37937;61.490;23.506;2023-09-19T15:39:08;15.60;99.90
3478;DHT22;37937;61.490;23.506;2023-09-19T15:41:37;15.60;99.90
3478;DHT22;37937;61.490;23.506;2023-09-19T15:44:13;15.60;99.90
3478;DHT22;37937;61.490;23.506;2023-09-19T15:46:39;15.60;99.90
3478;DHT22;37937;61.490;23.506;2023-09-19T15:49:04;15.60;99.90
3478;DHT22;37937;61.490;23.506;2023-09-19T15:51:30;15.60;99.90
3478;DHT22;37937;61.490;23.506;2023-09-19T15:53:56;15.60;99.90
3478;DHT22;37937;61.490;23.506;2023-09-19T15:56:22;15.60;99.90
3478;DHT22;37937;61.490;23.506;2023-09-19T15:58:48;15.60;99.90
3478;DHT22;37937;61.490;23.506;2023-09-19T16:01:14;15.60;99.90
3478;DHT22;37937;61.490;23.506;2023-09-19T16:03:44;15.70;99.90
3478;DHT22;37937;61.490;23.506;2023-09-19T16:06:11;15.70;99.90
3478;DHT22;37937;61.490;23.506;2023-09-19T16:08:40;15.60;99.90
3478;DHT22;37937;61.490;23.506;2023-09-19T16:11:06;15.60;99.90
3478;DHT22;37937;61.490;23.506;2023-09-19T16:13:32;15.70;99.90
3478;DHT22;37937;61.490;23.506;2023-09-19T16:15:57;15.70;99.90
3478;DHT22;37937;61.490;23.506;2023-09-19T16:18:23;15.70;99.90
3478;DHT22;37937;61.490;23.506;2023-09-19T16:20:49;15.70;99.90